Rockbridge, Ohio
Current Conditions -  °F | °C
As of 2:53 AM on Tuesday 21 Oct 2014 (Local Time) from KLHQ Reporting Station
Overcast Overcast  
Wind Chill: 45°   Ceiling: 6500
Heat Index: 48°   Visibility: 9mi
Dew Point: 46°   Wind: 6mph
Humidity: 93%   Direction: 110°ESE
Pressure: 29.88"   Gusts: NA
Location:  39.58°N, 82.52°W
Report Text: KLHQ 210653Z AUTO 11005KT 9SM OVC065 09/08 A2988 RMK AO2 SLP118 T00890078
Loading
Personal Weather Stations






























Interactive Weather Map
Tropical Storm Tracking
New forecast layout! Learn more

10-Day Weather Forecast

Advertisements
Track Severe Weather on mobile